首页
METAR-TAF:

METAR-TAF

机场 :

格拉斯哥普雷斯特威克机场

格拉斯哥普雷斯蒂克国际机场, 苏格兰

纬度: 55-30N, 经度: 004-35W, 海拔: 20米

当前天气观测

该预报发布于42分钟前的00:50 UTC
风速5节,风向南转南东
温度 6°C
湿度 87%
气压 1001 hPa
能见度10公里或以上
少量云层高于2000英尺

METAR: EGPK 170050Z 15005KT 9999 FEW020 06/04 Q1001

时间: 02:32 (01:32 UTC)

预报

该预报发布于2小时和34分钟前的22:58 UTC
预报有效从17日的 00点(UTC)到 17日的 24点(UTC)
风速5节,风向
能见度10公里或以上
少量云层高于2000英尺
几率 30% :
短暂存在
从 17日的 00点(UTC)到 17日的 07点(UTC)
能見度: 7000
阵雨
成为
从 17日的 05点(UTC)到 17日的 08点(UTC)
风速12节,风向东南
短暂存在
从 17日的 07点(UTC)到 17日的 18点(UTC)
能見度: 6000
多云层高于1400英尺
阵雨
几率 30% :
短暂存在
从 17日的 12点(UTC)到 17日的 19点(UTC)
能見度: 2000
多云层高于900英尺, 积雨云.
大阵雨

TAF: EGPK 162258Z 1700/1724 19005KT 9999 FEW020 PROB30 TEMPO 1700/1707 7000 SHRA BECMG 1705/1708 13012KT TEMPO 1707/1718 6000 SHRA BKN014 PROB30 TEMPO 1712/1719 2000 +SHRA BKN009CB

超过4000个机场的气象观测和天气预报(METAR&TAF报告)。

可查询的气象台以黄色和红色小点在地图上表示。

将鼠标移到小点上方,可查看气象台名称。

然后点击查看天气观测和预报。

如需切换地图:点击带黑十字的绿色按钮放大地图;点击带横线的绿色按钮缩小地图;或者点击绿色箭头查看邻近地区的地图。


METAR-TAF: